createdAt,value
2022-11-27T00:01:10.730Z,102013.00
2022-11-27T00:03:40.297Z,101991.00
2022-11-27T00:06:11.152Z,102008.00
2022-11-27T00:08:38.958Z,102003.00
2022-11-27T00:11:08.500Z,102004.00
2022-11-27T00:13:37.010Z,102014.00
2022-11-27T00:16:05.898Z,101998.00
2022-11-27T00:18:33.851Z,102012.00
2022-11-27T00:21:05.660Z,102012.00
2022-11-27T00:23:34.553Z,102011.00
2022-11-27T00:26:02.493Z,102007.00
2022-11-27T00:28:30.764Z,102004.00
2022-11-27T00:31:00.263Z,101988.00
2022-11-27T00:33:28.398Z,101990.00
2022-11-27T00:35:56.268Z,101990.00
2022-11-27T00:38:25.537Z,101984.00
2022-11-27T00:40:53.517Z,101941.00
2022-11-27T00:43:21.302Z,101975.00
2022-11-27T00:45:50.324Z,101983.00
2022-11-27T00:48:18.135Z,101968.00
2022-11-27T00:50:45.925Z,101965.00
2022-11-27T00:53:13.729Z,101964.00
2022-11-27T00:55:43.059Z,101933.00
2022-11-27T00:58:10.885Z,101964.00
2022-11-27T01:00:38.903Z,101969.00
2022-11-27T01:03:06.768Z,101930.00
2022-11-27T01:05:37.812Z,101965.00
2022-11-27T01:08:05.924Z,101957.00
2022-11-27T01:10:33.738Z,101932.00
2022-11-27T01:13:02.953Z,101962.00
2022-11-27T01:15:30.841Z,101959.00
2022-11-27T01:17:58.606Z,101962.00
2022-11-27T01:20:26.401Z,101918.00
2022-11-27T01:22:54.189Z,101928.00
2022-11-27T01:25:26.753Z,101948.00
2022-11-27T01:27:54.872Z,101944.00
2022-11-27T01:30:24.075Z,101943.00
2022-11-27T01:32:51.949Z,101940.00
2022-11-27T01:35:19.928Z,101941.00
2022-11-27T01:37:47.763Z,101933.00
2022-11-27T01:40:15.708Z,101929.00
2022-11-27T01:42:43.486Z,101926.00
2022-11-27T01:45:11.996Z,101921.00
2022-11-27T01:47:46.874Z,101931.00
2022-11-27T01:50:19.076Z,101932.00
2022-11-27T01:52:51.223Z,101928.00
2022-11-27T01:55:24.755Z,101932.00
2022-11-27T01:57:55.703Z,101919.00
2022-11-27T02:00:24.631Z,101921.00
2022-11-27T02:02:53.912Z,101908.00
2022-11-27T02:05:23.787Z,101933.00
2022-11-27T02:07:53.518Z,101901.00
2022-11-27T02:10:21.804Z,101913.00
2022-11-27T02:12:56.312Z,101909.00
2022-11-27T02:15:31.860Z,101920.00
2022-11-27T02:18:10.158Z,101919.00
2022-11-27T02:20:53.052Z,101926.00
2022-11-27T02:23:48.706Z,101911.00
2022-11-27T02:26:47.340Z,101913.00
2022-11-27T02:29:20.793Z,101900.00
2022-11-27T02:31:54.150Z,101897.00
2022-11-27T02:34:26.906Z,101899.00
2022-11-27T02:37:08.357Z,101896.00
2022-11-27T02:39:41.145Z,101896.00
2022-11-27T02:42:13.222Z,101874.00
2022-11-27T02:44:47.281Z,101884.00
2022-11-27T02:47:16.473Z,101851.00
2022-11-27T02:49:45.784Z,101853.00
2022-11-27T02:52:15.595Z,101859.00
2022-11-27T02:54:47.211Z,101852.00
2022-11-27T02:57:16.310Z,101869.00
2022-11-27T02:59:46.510Z,101870.00
2022-11-27T03:02:23.164Z,101858.00
2022-11-27T03:04:53.688Z,101831.00
2022-11-27T03:07:27.676Z,101855.00
2022-11-27T03:10:00.830Z,101855.00
2022-11-27T03:12:28.849Z,101859.00
2022-11-27T03:14:58.223Z,101841.00
2022-11-27T03:17:40.557Z,101798.00
2022-11-27T03:20:14.667Z,101798.00
2022-11-27T03:22:42.534Z,101846.00
2022-11-27T03:25:10.595Z,101838.00
2022-11-27T03:27:45.300Z,101825.00
2022-11-27T03:30:15.010Z,101827.00
2022-11-27T03:32:43.056Z,101823.00
2022-11-27T03:35:14.702Z,101826.00
2022-11-27T03:37:42.751Z,101830.00
2022-11-27T03:40:11.784Z,101824.00
2022-11-27T03:42:49.965Z,101837.00
2022-11-27T03:45:31.396Z,101795.00
2022-11-27T03:48:08.809Z,101842.00
2022-11-27T03:50:47.581Z,101786.00
2022-11-27T03:53:23.006Z,101843.00
2022-11-27T03:55:56.285Z,101842.00
2022-11-27T03:58:31.860Z,101845.00
2022-11-27T04:01:02.904Z,101841.00
2022-11-27T04:03:31.613Z,101833.00
2022-11-27T04:05:59.477Z,101848.00
2022-11-27T04:08:27.459Z,101850.00
2022-11-27T04:10:55.221Z,101860.00
2022-11-27T04:13:22.999Z,101842.00
2022-11-27T04:15:50.859Z,101850.00
2022-11-27T04:18:19.998Z,101837.00
2022-11-27T04:20:47.839Z,101781.00
2022-11-27T04:23:15.615Z,101844.00
2022-11-27T04:25:43.391Z,101834.00
2022-11-27T04:28:11.223Z,101827.00
2022-11-27T04:30:39.019Z,101825.00
2022-11-27T04:33:07.102Z,101826.00
2022-11-27T04:35:36.357Z,101831.00
2022-11-27T04:38:04.136Z,101820.00
2022-11-27T04:40:32.055Z,101827.00
2022-11-27T04:42:59.852Z,101827.00
2022-11-27T04:45:27.724Z,101790.00
2022-11-27T04:47:55.693Z,101823.00
2022-11-27T04:50:23.472Z,101822.00
2022-11-27T04:52:52.769Z,101813.00
2022-11-27T04:55:20.624Z,101814.00
2022-11-27T04:57:48.436Z,101817.00
2022-11-27T05:00:16.888Z,101814.00
2022-11-27T05:02:44.764Z,101804.00
2022-11-27T05:05:12.775Z,101808.00
2022-11-27T05:07:40.605Z,101790.00
2022-11-27T05:10:10.745Z,101780.00
2022-11-27T05:12:38.579Z,101757.00
2022-11-27T05:15:07.675Z,101799.00
2022-11-27T05:17:35.637Z,101794.00
2022-11-27T05:20:03.621Z,101785.00
2022-11-27T05:22:31.386Z,101781.00
2022-11-27T05:24:59.230Z,101791.00
2022-11-27T05:27:28.397Z,101778.00
2022-11-27T05:29:56.212Z,101779.00
2022-11-27T05:32:24.048Z,101780.00
2022-11-27T05:34:52.145Z,101771.00
2022-11-27T05:37:20.218Z,101756.00
2022-11-27T05:39:48.096Z,101755.00
2022-11-27T05:42:15.855Z,101741.00
2022-11-27T05:44:45.133Z,101751.00
2022-11-27T05:47:12.951Z,101739.00
2022-11-27T05:49:40.781Z,101743.00
2022-11-27T05:52:08.609Z,101736.00
2022-11-27T05:54:36.414Z,101729.00
2022-11-27T05:57:04.258Z,101723.00
2022-11-27T05:59:32.033Z,101710.00
2022-11-27T06:02:01.192Z,101749.00
2022-11-27T06:04:28.991Z,101732.00
2022-11-27T06:06:56.742Z,101722.00
2022-11-27T06:09:24.669Z,101717.00
2022-11-27T06:11:52.561Z,101720.00
2022-11-27T06:14:20.402Z,101725.00
2022-11-27T06:16:48.298Z,101726.00
2022-11-27T06:19:17.657Z,101700.00
2022-11-27T06:21:46.670Z,101708.00
2022-11-27T06:24:14.598Z,101717.00
2022-11-27T06:26:42.592Z,101720.00
2022-11-27T06:29:10.601Z,101715.00
2022-11-27T06:31:38.472Z,101717.00
2022-11-27T06:34:07.684Z,101701.00
2022-11-27T06:36:40.751Z,101726.00
2022-11-27T06:39:11.024Z,101698.00
2022-11-27T06:41:39.041Z,101730.00
2022-11-27T06:44:06.857Z,101668.00
2022-11-27T06:46:34.654Z,101707.00
2022-11-27T06:49:02.986Z,101721.00
2022-11-27T06:51:32.437Z,101706.00
2022-11-27T06:54:02.972Z,101714.00
2022-11-27T06:56:32.623Z,101708.00
2022-11-27T06:59:01.742Z,101685.00
2022-11-27T07:01:31.220Z,101712.00
2022-11-27T07:03:59.386Z,101728.00
2022-11-27T07:06:28.449Z,101675.00
2022-11-27T07:08:56.571Z,101697.00
2022-11-27T07:11:28.649Z,101710.00
2022-11-27T07:13:57.943Z,101705.00
2022-11-27T07:16:26.969Z,101660.00
2022-11-27T07:18:57.378Z,101705.00
2022-11-27T07:21:25.243Z,101697.00
2022-11-27T07:23:53.843Z,101697.00
2022-11-27T07:26:23.733Z,101639.00
2022-11-27T07:28:53.564Z,101699.00
2022-11-27T07:31:28.127Z,101704.00
2022-11-27T07:33:59.079Z,101700.00
2022-11-27T07:36:28.667Z,101688.00
2022-11-27T07:38:56.608Z,101691.00
2022-11-27T07:41:26.900Z,101697.00
2022-11-27T07:43:58.528Z,101690.00
2022-11-27T07:46:26.621Z,101685.00
2022-11-27T07:48:54.484Z,101691.00
2022-11-27T07:51:22.804Z,101695.00
2022-11-27T07:53:52.182Z,101666.00
2022-11-27T07:56:20.926Z,101691.00
2022-11-27T07:58:49.094Z,101692.00
2022-11-27T08:01:19.975Z,101684.00
2022-11-27T08:03:48.176Z,101671.00
2022-11-27T08:06:18.786Z,101689.00
2022-11-27T08:08:46.980Z,101678.00
2022-11-27T08:11:20.014Z,101681.00
2022-11-27T08:13:47.904Z,101682.00
2022-11-27T08:16:16.000Z,101690.00
2022-11-27T08:18:45.256Z,101681.00
2022-11-27T08:21:13.176Z,101650.00
2022-11-27T08:23:41.023Z,101684.00
2022-11-27T08:26:09.789Z,101685.00
2022-11-27T08:28:38.522Z,101693.00
2022-11-27T08:31:08.394Z,101703.00
2022-11-27T08:33:36.610Z,101639.00
2022-11-27T08:36:08.974Z,101688.00
2022-11-27T08:38:38.708Z,101685.00
2022-11-27T08:41:08.236Z,101639.00
2022-11-27T08:43:36.714Z,101699.00
2022-11-27T08:46:06.290Z,101705.00
2022-11-27T08:48:35.543Z,101639.00
2022-11-27T08:51:09.221Z,101674.00
2022-11-27T08:53:45.666Z,101634.00
2022-11-27T08:56:22.069Z,101681.00
2022-11-27T08:58:55.804Z,101661.00
2022-11-27T09:01:37.447Z,101631.00
2022-11-27T09:04:05.881Z,101618.00
2022-11-27T09:06:52.904Z,101658.00
2022-11-27T09:10:09.902Z,101647.00
2022-11-27T09:13:12.734Z,101658.00
2022-11-27T09:15:43.961Z,101640.00
2022-11-27T09:18:25.579Z,101635.00
2022-11-27T09:21:08.329Z,101594.00
2022-11-27T09:24:05.740Z,101605.00
2022-11-27T09:26:49.599Z,101634.00
2022-11-27T09:29:25.035Z,101601.00
2022-11-27T09:32:04.932Z,101635.00
2022-11-27T09:35:24.072Z,101620.00
2022-11-27T09:38:16.286Z,101608.00
2022-11-27T09:41:44.875Z,101620.00
2022-11-27T09:49:14.201Z,101627.00
2022-11-27T09:52:13.489Z,101609.00
2022-11-27T09:59:23.731Z,101583.00
2022-11-27T10:02:02.597Z,101592.00
2022-11-27T10:05:19.987Z,101588.00
2022-11-27T10:12:00.182Z,101590.00
2022-11-27T10:15:03.836Z,101593.00
2022-11-27T10:18:03.453Z,101599.00
2022-11-27T10:24:01.918Z,101510.00
2022-11-27T10:30:09.039Z,101552.00
2022-11-27T10:32:55.447Z,101547.00
2022-11-27T10:42:48.107Z,101526.00
2022-11-27T10:45:22.828Z,101533.00
2022-11-27T10:51:24.713Z,101506.00
2022-11-27T10:54:02.123Z,101533.00
2022-11-27T11:00:37.912Z,101489.00
2022-11-27T11:07:28.970Z,101497.00
2022-11-27T11:10:16.025Z,101485.00
2022-11-27T11:12:44.195Z,101530.00
2022-11-27T11:16:12.160Z,101522.00
2022-11-27T11:18:44.932Z,101514.00
2022-11-27T11:21:40.026Z,101511.00
2022-11-27T11:24:28.675Z,101534.00
2022-11-27T11:26:59.239Z,101529.00
2022-11-27T11:31:13.848Z,101446.00
2022-11-27T11:34:42.302Z,101520.00
2022-11-27T11:37:27.572Z,101507.00
2022-11-27T11:40:37.117Z,101497.00
2022-11-27T11:43:37.041Z,101510.00
2022-11-27T11:46:44.009Z,101447.00
2022-11-27T11:49:37.145Z,101478.00
2022-11-27T11:56:23.964Z,101480.00
2022-11-27T11:59:24.442Z,101413.00
2022-11-27T12:02:32.021Z,101429.00
2022-11-27T12:05:28.717Z,101466.00
2022-11-27T12:08:26.989Z,101418.00
2022-11-27T12:11:18.605Z,101434.00
2022-11-27T12:14:06.234Z,101453.00
2022-11-27T12:17:50.317Z,101379.00
2022-11-27T12:20:48.313Z,101420.00
2022-11-27T12:24:09.031Z,101396.00
2022-11-27T12:27:01.379Z,101414.00
2022-11-27T12:29:56.633Z,101388.00
2022-11-27T12:37:29.939Z,101397.00
2022-11-27T12:40:30.702Z,101370.00
2022-11-27T12:43:31.600Z,101404.00
2022-11-27T12:46:13.102Z,101368.00
2022-11-27T12:48:48.795Z,101364.00
2022-11-27T12:51:49.580Z,101395.00
2022-11-27T12:54:57.119Z,101394.00
2022-11-27T12:57:37.809Z,101378.00
2022-11-27T13:00:19.001Z,101348.00
2022-11-27T13:03:00.196Z,101373.00
2022-11-27T13:05:31.690Z,101328.00
2022-11-27T13:08:04.705Z,101370.00
2022-11-27T13:10:48.492Z,101359.00
2022-11-27T13:13:30.280Z,101321.00
2022-11-27T13:16:11.503Z,101360.00
2022-11-27T13:18:53.614Z,101335.00
2022-11-27T13:21:29.309Z,101374.00
2022-11-27T13:24:07.212Z,101377.00
2022-11-27T13:26:42.573Z,101326.00
2022-11-27T13:29:30.512Z,101362.00
2022-11-27T13:32:07.548Z,101363.00
2022-11-27T13:34:45.325Z,101325.00
2022-11-27T13:37:57.180Z,101359.00
2022-11-27T13:40:30.124Z,101331.00
2022-11-27T13:43:05.768Z,101335.00
2022-11-27T13:45:48.993Z,101339.00
2022-11-27T13:48:31.342Z,101323.00
2022-11-27T13:51:03.057Z,101292.00
2022-11-27T13:53:47.500Z,101301.00
2022-11-27T13:56:32.036Z,101323.00
2022-11-27T13:59:39.317Z,101329.00
2022-11-27T14:02:24.837Z,101297.00
2022-11-27T14:05:01.048Z,101266.00
2022-11-27T14:07:48.063Z,101271.00
2022-11-27T14:10:20.054Z,101306.00
2022-11-27T14:12:54.517Z,101306.00
2022-11-27T14:15:26.593Z,101294.00
2022-11-27T14:18:22.481Z,101295.00
2022-11-27T14:21:03.749Z,101283.00
2022-11-27T14:39:33.067Z,101275.00
2022-11-27T15:03:17.557Z,101234.00
2022-11-27T15:06:32.971Z,101236.00
2022-11-27T15:09:32.297Z,101220.00
2022-11-27T15:11:56.788Z,101195.00
2022-11-27T15:14:28.614Z,101226.00
2022-11-27T15:16:57.504Z,101206.00
2022-11-27T15:19:32.515Z,101204.00
2022-11-27T15:22:02.689Z,101193.00
2022-11-27T15:24:41.782Z,101174.00
2022-11-27T15:27:22.128Z,101185.00
2022-11-27T15:30:18.649Z,101198.00
2022-11-27T15:32:55.346Z,101160.00
2022-11-27T15:56:03.681Z,101191.00
2022-11-27T15:58:31.736Z,101181.00
2022-11-27T16:01:23.814Z,101185.00
2022-11-27T16:03:51.817Z,101175.00
2022-11-27T16:15:25.749Z,101116.00
2022-11-27T16:17:57.969Z,101146.00
2022-11-27T16:22:04.070Z,101113.00
2022-11-27T16:24:42.923Z,101154.00
2022-11-27T16:27:13.986Z,101147.00
2022-11-27T16:30:51.581Z,101119.00
2022-11-27T16:33:40.576Z,101159.00
2022-11-27T16:39:40.962Z,101139.00
2022-11-27T16:43:00.405Z,101151.00
2022-11-27T16:45:30.768Z,101141.00
2022-11-27T16:52:04.800Z,101130.00
2022-11-27T16:54:34.912Z,101137.00
2022-11-27T16:57:22.600Z,101118.00
2022-11-27T16:59:53.654Z,101090.00
2022-11-27T17:02:21.683Z,101075.00
2022-11-27T17:04:49.620Z,101110.00
2022-11-27T17:11:48.480Z,101083.00
2022-11-27T17:14:54.279Z,101051.00
2022-11-27T17:18:07.698Z,101096.00
2022-11-27T17:23:56.366Z,101052.00
2022-11-27T17:26:24.865Z,101079.00
2022-11-27T17:28:56.304Z,101085.00
2022-11-27T17:31:26.827Z,101077.00
2022-11-27T17:33:56.642Z,101075.00
2022-11-27T17:36:24.886Z,101081.00
2022-11-27T17:38:53.605Z,101093.00
2022-11-27T17:41:21.904Z,101074.00
2022-11-27T17:43:49.897Z,101068.00
2022-11-27T17:46:21.518Z,101040.00
2022-11-27T17:49:16.181Z,101077.00
2022-11-27T17:56:42.546Z,101034.00
2022-11-27T18:04:33.992Z,101000.00
2022-11-27T18:44:23.432Z,100987.00
2022-11-27T18:51:10.673Z,100996.00
2022-11-27T18:54:43.766Z,101000.00
2022-11-27T19:02:20.342Z,100995.00
2022-11-27T19:05:31.061Z,100998.00
2022-11-27T19:08:04.379Z,100982.00
2022-11-27T19:16:21.149Z,100932.00
2022-11-27T19:22:56.092Z,100933.00
2022-11-27T19:44:21.948Z,100958.00
2022-11-27T19:46:49.894Z,100962.00
2022-11-27T19:49:19.350Z,100912.00
2022-11-27T19:51:51.085Z,100951.00
2022-11-27T19:54:20.521Z,100892.00
2022-11-27T19:56:48.387Z,100930.00
2022-11-27T20:02:01.884Z,100933.00
2022-11-27T20:08:12.836Z,100926.00
2022-11-27T20:10:40.651Z,100922.00
2022-11-27T20:13:10.348Z,100906.00
2022-11-27T20:19:31.026Z,100924.00
2022-11-27T20:22:01.989Z,100929.00
2022-11-27T20:24:29.947Z,100897.00
2022-11-27T20:26:57.759Z,100902.00
2022-11-27T20:29:25.600Z,100895.00
2022-11-27T20:31:55.396Z,100862.00
2022-11-27T20:34:23.682Z,100900.00
2022-11-27T20:37:24.972Z,100877.00
2022-11-27T20:39:59.990Z,100909.00
2022-11-27T20:42:28.077Z,100883.00
2022-11-27T20:49:02.132Z,100885.00
2022-11-27T20:51:33.383Z,100912.00
2022-11-27T20:54:04.232Z,100903.00
2022-11-27T20:56:32.653Z,100897.00
2022-11-27T20:59:00.919Z,100905.00
2022-11-27T21:01:31.579Z,100862.00
2022-11-27T21:04:01.382Z,100888.00
2022-11-27T21:06:32.367Z,100873.00
2022-11-27T21:09:01.098Z,100867.00
2022-11-27T21:11:30.681Z,100844.00
2022-11-27T21:14:00.127Z,100886.00
2022-11-27T21:16:29.927Z,100864.00
2022-11-27T21:19:00.337Z,100872.00
2022-11-27T21:21:30.500Z,100882.00
2022-11-27T21:23:58.505Z,100849.00
2022-11-27T21:26:27.047Z,100872.00
2022-11-27T21:28:54.932Z,100870.00
2022-11-27T21:31:24.795Z,100863.00
2022-11-27T21:33:54.466Z,100851.00
2022-11-27T21:36:24.823Z,100852.00
2022-11-27T21:38:54.337Z,100857.00
2022-11-27T21:41:22.201Z,100858.00
2022-11-27T21:43:50.568Z,100824.00
2022-11-27T21:46:22.475Z,100858.00
2022-11-27T21:48:52.125Z,100844.00
2022-11-27T21:51:21.135Z,100843.00
2022-11-27T21:53:51.175Z,100835.00
2022-11-27T21:56:22.316Z,100830.00
2022-11-27T21:58:50.187Z,100838.00
2022-11-27T22:01:20.268Z,100839.00
2022-11-27T22:03:50.217Z,100834.00
2022-11-27T22:06:19.563Z,100843.00
2022-11-27T22:08:49.407Z,100831.00
2022-11-27T22:11:21.051Z,100835.00
2022-11-27T22:13:49.013Z,100825.00
2022-11-27T22:16:20.257Z,100831.00
2022-11-27T22:18:48.829Z,100828.00
2022-11-27T22:21:17.694Z,100784.00
2022-11-27T22:23:45.846Z,100774.00
2022-11-27T22:26:15.001Z,100810.00
2022-11-27T22:28:44.665Z,100807.00
2022-11-27T22:31:14.382Z,100794.00
2022-11-27T22:33:43.322Z,100805.00
2022-11-27T22:36:15.727Z,100776.00
2022-11-27T22:38:43.777Z,100807.00
2022-11-27T22:41:12.557Z,100797.00
2022-11-27T22:43:40.720Z,100797.00
2022-11-27T22:46:11.584Z,100783.00
2022-11-27T22:48:39.609Z,100797.00
2022-11-27T22:51:07.750Z,100783.00
2022-11-27T22:53:35.807Z,100794.00
2022-11-27T22:56:07.987Z,100787.00
2022-11-27T22:58:40.994Z,100786.00
2022-11-27T23:01:15.400Z,100792.00
2022-11-27T23:03:43.225Z,100762.00
2022-11-27T23:06:12.798Z,100799.00
2022-11-27T23:08:40.969Z,100787.00
2022-11-27T23:11:09.527Z,100792.00
2022-11-27T23:13:37.970Z,100782.00
2022-11-27T23:16:07.997Z,100779.00
2022-11-27T23:18:38.509Z,100763.00
2022-11-27T23:21:06.851Z,100763.00
2022-11-27T23:23:34.823Z,100750.00
2022-11-27T23:26:06.376Z,100754.00
2022-11-27T23:28:36.664Z,100755.00
2022-11-27T23:31:28.755Z,100755.00
2022-11-27T23:33:55.747Z,100734.00
2022-11-27T23:36:23.757Z,100757.00
2022-11-27T23:38:51.646Z,100754.00
2022-11-27T23:41:21.746Z,100749.00
2022-11-27T23:43:50.161Z,100734.00
2022-11-27T23:46:21.044Z,100720.00
2022-11-27T23:48:49.393Z,100727.00
2022-11-27T23:51:20.404Z,100726.00
2022-11-27T23:53:50.253Z,100718.00
2022-11-27T23:56:20.485Z,100681.00
2022-11-27T23:58:48.622Z,100681.00
